Time;durP1;ratioP1;P1;durP2;ratioP2;P2;SDS_P1;SDS_P2;PMS_P1;PMS_P2;Temp;Humidity;BMP_temperature;BMP_pressure;BME280_temperature;BME280_humidity;BME280_pressure;Samples;Min_cycle;Max_cycle;Signal;HPM_P1;HPM_P2
2022/09/24 00:00:08;;;;;;;0.90;0.80;;;;;;;;;;5090652;28;20467;-42
2022/09/24 00:02:33;;;;;;;0.70;0.50;;;;;;;;;;5092072;28;20036;-42
2022/09/24 00:04:58;;;;;;;7.18;0.80;;;;;;;;;;5091935;28;20028;-42
2022/09/24 00:07:24;;;;;;;1.80;1.00;;;;;;;;;;5091854;28;20447;-42
2022/09/24 00:09:49;;;;;;;0.70;0.52;;;;;;;;;;5092127;28;20058;-42
2022/09/24 00:12:15;;;;;;;1.77;0.70;;;;;;;;;;5091758;28;20036;-42
2022/09/24 00:14:40;;;;;;;0.80;0.65;;;;;;;;;;5092110;28;20024;-42
2022/09/24 00:17:05;;;;;;;0.60;0.60;;;;;;;;;;5091746;28;20038;-42
2022/09/24 00:19:31;;;;;;;1.20;1.10;;;;;;;;;;5091681;28;20026;-49
2022/09/24 00:21:56;;;;;;;0.50;0.50;;;;;;;;;;5091771;28;20039;-42
2022/09/24 00:27:05;;;;;;;2.38;1.08;;;;;;;;;;5091873;28;20039;-42
2022/09/24 00:29:33;;;;;;;1.45;0.73;;;;;;;;;;5090353;28;20015;-42
2022/09/24 00:31:58;;;;;;;0.52;0.52;;;;;;;;;;5091998;28;20474;-42
2022/09/24 00:34:23;;;;;;;0.80;0.68;;;;;;;;;;5091705;28;20058;-42
2022/09/24 00:36:49;;;;;;;1.00;0.90;;;;;;;;;;5091450;28;20031;-42
2022/09/24 00:39:15;;;;;;;0.68;0.60;;;;;;;;;;5091729;28;20024;-42
2022/09/24 00:41:43;;;;;;;0.63;0.55;;;;;;;;;;5091341;28;20169;-42
2022/09/24 00:44:27;;;;;;;1.88;1.25;;;;;;;;;;5091365;28;20081;-42
2022/09/24 00:46:53;;;;;;;0.80;0.80;;;;;;;;;;5091393;28;20047;-42
2022/09/24 00:49:18;;;;;;;1.25;0.90;;;;;;;;;;5091670;28;20036;-42
2022/09/24 00:51:45;;;;;;;0.50;0.50;;;;;;;;;;5091623;28;20055;-42
2022/09/24 00:54:14;;;;;;;0.98;0.70;;;;;;;;;;5091115;28;20020;-42
2022/09/24 00:56:41;;;;;;;3.30;0.80;;;;;;;;;;5091338;28;20032;-42
2022/09/24 00:59:09;;;;;;;1.75;1.13;;;;;;;;;;5091344;28;20020;-42
2022/09/24 01:01:35;;;;;;;0.60;0.60;;;;;;;;;;5091315;28;20036;-42
2022/09/24 01:04:00;;;;;;;1.48;0.93;;;;;;;;;;5091168;28;20020;-43
2022/09/24 01:06:26;;;;;;;3.05;0.60;;;;;;;;;;5091162;28;20039;-42
2022/09/24 01:08:52;;;;;;;0.73;0.73;;;;;;;;;;5091165;28;20023;-42
2022/09/24 01:11:37;;;;;;;0.63;0.55;;;;;;;;;;5091054;28;20039;-42
2022/09/24 01:14:18;;;;;;;1.15;0.70;;;;;;;;;;5091173;28;20024;-42
2022/09/24 01:16:52;;;;;;;1.15;0.80;;;;;;;;;;5091138;28;20032;-42
2022/09/24 01:19:24;;;;;;;0.68;0.55;;;;;;;;;;5090949;28;20028;-42
2022/09/24 01:21:54;;;;;;;1.02;0.80;;;;;;;;;;5089850;28;20040;-42
2022/09/24 01:24:23;;;;;;;1.38;0.85;;;;;;;;;;5091326;28;20016;-42
2022/09/24 01:27:08;;;;;;;1.23;1.13;;;;;;;;;;5091239;28;20394;-42
2022/09/24 01:29:44;;;;;;;0.90;0.77;;;;;;;;;;5091031;28;20586;-42
2022/09/24 01:32:12;;;;;;;1.17;0.85;;;;;;;;;;5091214;28;20088;-42
2022/09/24 01:34:46;;;;;;;1.45;1.35;;;;;;;;;;5090946;28;20026;-42
2022/09/24 01:37:14;;;;;;;0.88;0.88;;;;;;;;;;5090890;28;20471;-41
2022/09/24 01:39:41;;;;;;;1.13;1.00;;;;;;;;;;5091122;28;20020;-42
2022/09/24 01:42:09;;;;;;;0.80;0.80;;;;;;;;;;5091092;28;20113;-42
2022/09/24 01:44:36;;;;;;;1.65;0.93;;;;;;;;;;5091011;28;20375;-42
2022/09/24 01:47:04;;;;;;;0.80;0.70;;;;;;;;;;5090791;28;20047;-42
2022/09/24 01:49:30;;;;;;;1.48;1.00;;;;;;;;;;5091114;28;20036;-42
2022/09/24 01:51:58;;;;;;;0.65;0.57;;;;;;;;;;5091101;28;20463;-42
2022/09/24 01:54:49;;;;;;;1.23;0.75;;;;;;;;;;5091017;28;20034;-42
2022/09/24 01:57:21;;;;;;;0.80;0.80;;;;;;;;;;5090709;28;20030;-43
2022/09/24 01:59:58;;;;;;;1.70;1.08;;;;;;;;;;5091029;28;20378;-42
2022/09/24 02:02:27;;;;;;;0.85;0.85;;;;;;;;;;5090809;28;20103;-42
2022/09/24 02:05:14;;;;;;;0.93;0.93;;;;;;;;;;5090796;28;20188;-42
2022/09/24 02:07:52;;;;;;;1.52;1.10;;;;;;;;;;5093019;28;20051;-42
2022/09/24 02:10:19;;;;;;;0.73;0.70;;;;;;;;;;5094392;28;20040;-42
2022/09/24 02:12:47;;;;;;;1.20;0.82;;;;;;;;;;5094264;28;20020;-42
2022/09/24 02:15:33;;;;;;;1.88;1.08;;;;;;;;;;5094319;28;20036;-42
2022/09/24 02:18:00;;;;;;;1.13;0.75;;;;;;;;;;5093726;28;20043;-43
2022/09/24 02:20:26;;;;;;;1.17;0.82;;;;;;;;;;5094219;28;20085;-42
2022/09/24 02:22:54;;;;;;;1.30;1.08;;;;;;;;;;5094008;28;20535;-42
2022/09/24 02:25:21;;;;;;;1.02;0.88;;;;;;;;;;5093965;28;20712;-42
2022/09/24 02:27:46;;;;;;;1.40;0.90;;;;;;;;;;5093839;28;20466;-43
2022/09/24 02:30:12;;;;;;;0.88;0.70;;;;;;;;;;5093735;28;20070;-44
2022/09/24 02:32:39;;;;;;;1.17;1.08;;;;;;;;;;5093865;28;20070;-42
2022/09/24 02:35:06;;;;;;;1.67;1.45;;;;;;;;;;5093817;28;20062;-42
2022/09/24 02:37:36;;;;;;;0.82;0.73;;;;;;;;;;5093848;28;20097;-42
2022/09/24 02:40:03;;;;;;;1.25;1.15;;;;;;;;;;5093564;28;20115;-42
2022/09/24 02:42:30;;;;;;;0.85;0.68;;;;;;;;;;5093999;28;20028;-42
2022/09/24 02:44:58;;;;;;;0.93;0.68;;;;;;;;;;5093294;28;20059;-42
2022/09/24 02:47:24;;;;;;;1.00;0.90;;;;;;;;;;5093395;28;20543;-42
2022/09/24 02:49:49;;;;;;;1.50;0.95;;;;;;;;;;5093837;28;20051;-42
2022/09/24 02:52:15;;;;;;;2.55;0.93;;;;;;;;;;5093592;28;20028;-42
2022/09/24 02:54:41;;;;;;;1.83;1.33;;;;;;;;;;5093443;28;20095;-42
2022/09/24 02:57:07;;;;;;;0.70;0.70;;;;;;;;;;5093224;28;20031;-42
2022/09/24 02:59:32;;;;;;;0.95;0.90;;;;;;;;;;5093324;28;20103;-42
2022/09/24 03:01:57;;;;;;;1.25;0.80;;;;;;;;;;5093246;28;20040;-42
2022/09/24 03:04:23;;;;;;;0.88;0.75;;;;;;;;;;5093443;28;20020;-42
2022/09/24 03:06:49;;;;;;;1.70;0.93;;;;;;;;;;5093148;28;20031;-42
2022/09/24 03:09:14;;;;;;;0.75;0.70;;;;;;;;;;5093012;28;20020;-42
2022/09/24 03:11:40;;;;;;;0.65;0.63;;;;;;;;;;5093111;28;20150;-42
2022/09/24 03:14:05;;;;;;;0.90;0.82;;;;;;;;;;5092914;28;20024;-42
2022/09/24 03:16:30;;;;;;;2.55;0.73;;;;;;;;;;5092829;28;20028;-42
2022/09/24 03:18:56;;;;;;;0.93;0.80;;;;;;;;;;5092882;28;20065;-42
2022/09/24 03:21:21;;;;;;;0.75;0.70;;;;;;;;;;5092892;28;20035;-42
2022/09/24 03:23:47;;;;;;;0.80;0.80;;;;;;;;;;5091608;28;20524;-42
2022/09/24 03:26:12;;;;;;;1.02;1.00;;;;;;;;;;5092971;28;20028;-44
2022/09/24 03:28:38;;;;;;;0.70;0.70;;;;;;;;;;5092972;28;20020;-42
2022/09/24 03:31:03;;;;;;;1.13;0.88;;;;;;;;;;5092744;28;20032;-42
2022/09/24 03:33:32;;;;;;;1.83;0.80;;;;;;;;;;5092745;28;20024;-42
2022/09/24 03:36:08;;;;;;;0.80;0.80;;;;;;;;;;5092833;28;20028;-42
2022/09/24 03:38:34;;;;;;;0.68;0.68;;;;;;;;;;5092614;28;20032;-42
2022/09/24 03:41:00;;;;;;;0.90;0.90;;;;;;;;;;5092565;28;20035;-44
2022/09/24 03:43:26;;;;;;;1.17;0.70;;;;;;;;;;5092666;28;20086;-42
2022/09/24 03:45:52;;;;;;;1.08;0.98;;;;;;;;;;5092221;28;20051;-42
2022/09/24 03:48:18;;;;;;;0.70;0.70;;;;;;;;;;5092306;28;20024;-42
2022/09/24 03:50:45;;;;;;;3.03;1.10;;;;;;;;;;5092365;28;20032;-41
2022/09/24 03:53:10;;;;;;;2.85;0.90;;;;;;;;;;5092427;28;20106;-42
2022/09/24 03:55:40;;;;;;;0.95;0.90;;;;;;;;;;5092075;28;20019;-42
2022/09/24 03:58:06;;;;;;;0.82;0.80;;;;;;;;;;5092068;28;20028;-42
2022/09/24 04:00:31;;;;;;;1.10;1.10;;;;;;;;;;5092379;28;20426;-42
2022/09/24 04:02:56;;;;;;;1.67;0.93;;;;;;;;;;5090750;28;20608;-42
2022/09/24 04:05:22;;;;;;;1.02;1.00;;;;;;;;;;5092252;28;20027;-47
2022/09/24 04:07:47;;;;;;;1.33;0.75;;;;;;;;;;5092066;28;20035;-42
2022/09/24 04:10:13;;;;;;;1.52;1.35;;;;;;;;;;5091773;28;20400;-42
2022/09/24 04:12:38;;;;;;;1.33;0.98;;;;;;;;;;5091993;28;20067;-42
2022/09/24 04:15:04;;;;;;;1.17;1.05;;;;;;;;;;5092143;28;20028;-42
2022/09/24 04:17:30;;;;;;;2.28;1.00;;;;;;;;;;5091763;28;20390;-43
2022/09/24 04:19:58;;;;;;;1.83;1.08;;;;;;;;;;5092068;28;20643;-42
2022/09/24 04:22:24;;;;;;;5.18;1.23;;;;;;;;;;5091906;28;20028;-42
2022/09/24 04:24:50;;;;;;;0.93;0.70;;;;;;;;;;5091745;28;20085;-42
2022/09/24 04:27:16;;;;;;;0.98;0.80;;;;;;;;;;5091559;28;20024;-42
2022/09/24 04:29:41;;;;;;;1.30;0.90;;;;;;;;;;5090949;28;20478;-42
2022/09/24 04:32:06;;;;;;;1.20;0.90;;;;;;;;;;5090293;28;20063;-42
2022/09/24 04:34:32;;;;;;;1.15;1.05;;;;;;;;;;5091528;28;20103;-42
2022/09/24 04:36:57;;;;;;;1.27;1.17;;;;;;;;;;5090235;28;20073;-42
2022/09/24 04:39:25;;;;;;;0.75;0.60;;;;;;;;;;5091389;28;20024;-43
2022/09/24 04:41:51;;;;;;;2.25;0.80;;;;;;;;;;5091510;28;20043;-42
2022/09/24 04:44:16;;;;;;;1.08;0.77;;;;;;;;;;5091548;28;20355;-42
2022/09/24 04:46:42;;;;;;;1.20;0.95;;;;;;;;;;5091159;28;20051;-42
2022/09/24 04:49:08;;;;;;;1.13;0.80;;;;;;;;;;5091323;28;20030;-42
2022/09/24 04:51:34;;;;;;;2.40;0.90;;;;;;;;;;5091721;28;20085;-43
2022/09/24 04:54:01;;;;;;;1.52;1.35;;;;;;;;;;5091307;28;20091;-42
2022/09/24 04:56:27;;;;;;;9.07;2.15;;;;;;;;;;5091517;28;20028;-42
2022/09/24 04:58:53;;;;;;;1.48;0.85;;;;;;;;;;5091372;28;20016;-42
2022/09/24 05:01:19;;;;;;;1.23;1.00;;;;;;;;;;5090997;28;20046;-42
2022/09/24 05:03:45;;;;;;;0.82;0.80;;;;;;;;;;5091403;28;20020;-42
2022/09/24 05:06:10;;;;;;;0.98;0.80;;;;;;;;;;5091019;28;20028;-42
2022/09/24 05:08:36;;;;;;;0.75;0.75;;;;;;;;;;5091261;28;20130;-42
2022/09/24 05:11:01;;;;;;;1.08;1.02;;;;;;;;;;5091493;28;20082;-42
2022/09/24 05:13:27;;;;;;;1.85;1.42;;;;;;;;;;5091335;28;20020;-42
2022/09/24 05:15:52;;;;;;;1.42;0.88;;;;;;;;;;5091404;28;20441;-42
2022/09/24 05:18:18;;;;;;;1.58;1.15;;;;;;;;;;5091026;28;20092;-42
2022/09/24 05:20:43;;;;;;;1.02;0.95;;;;;;;;;;5091018;28;20417;-42
2022/09/24 05:23:09;;;;;;;1.08;0.80;;;;;;;;;;5091319;28;20050;-42
2022/09/24 05:27:07;;;;;;;1.67;0.82;;;;;;;;;;5091275;28;20356;-42
2022/09/24 05:28:20;;;;;;;1.25;0.77;;;;;;;;;;5090968;28;20028;-42
2022/09/24 05:30:46;;;;;;;0.60;0.60;;;;;;;;;;5089769;28;20102;-42
2022/09/24 05:33:12;;;;;;;1.05;1.00;;;;;;;;;;5091303;28;20064;-42
2022/09/24 05:35:37;;;;;;;1.33;1.10;;;;;;;;;;5091197;28;20055;-41
2022/09/24 05:38:03;;;;;;;1.00;0.90;;;;;;;;;;5091263;28;20545;-42
2022/09/24 05:43:12;;;;;;;1.00;0.70;;;;;;;;;;5094680;28;20424;-42
2022/09/24 05:45:38;;;;;;;0.90;0.80;;;;;;;;;;5094593;28;20052;-42
2022/09/24 05:48:04;;;;;;;1.40;0.90;;;;;;;;;;5094944;28;20028;-42
2022/09/24 05:50:31;;;;;;;0.90;0.80;;;;;;;;;;5094624;28;20443;-42
2022/09/24 05:52:57;;;;;;;1.08;0.73;;;;;;;;;;5094624;28;20059;-42
2022/09/24 05:55:22;;;;;;;0.77;0.77;;;;;;;;;;5094680;28;20044;-42
2022/09/24 05:57:48;;;;;;;1.42;1.23;;;;;;;;;;5094453;28;20443;-42
2022/09/24 06:00:13;;;;;;;1.13;0.70;;;;;;;;;;5094574;28;20111;-42
2022/09/24 06:02:39;;;;;;;0.88;0.85;;;;;;;;;;5093286;28;20082;-42
2022/09/24 06:05:04;;;;;;;2.00;0.65;;;;;;;;;;5094492;28;20008;-42
2022/09/24 06:07:30;;;;;;;1.02;0.93;;;;;;;;;;5094337;28;20548;-43
2022/09/24 06:09:58;;;;;;;0.88;0.88;;;;;;;;;;5094391;28;20516;-42
2022/09/24 06:12:23;;;;;;;1.63;1.08;;;;;;;;;;5094060;28;20035;-42
2022/09/24 06:14:49;;;;;;;1.67;1.00;;;;;;;;;;5094562;28;20028;-42
2022/09/24 06:17:14;;;;;;;1.20;1.08;;;;;;;;;;5094298;28;20028;-42
2022/09/24 06:19:41;;;;;;;0.65;0.65;;;;;;;;;;5094372;28;20423;-42
2022/09/24 06:22:07;;;;;;;1.45;1.08;;;;;;;;;;5094067;28;20040;-42
2022/09/24 06:24:33;;;;;;;0.80;0.73;;;;;;;;;;5093934;28;20016;-42
2022/09/24 06:26:59;;;;;;;0.73;0.70;;;;;;;;;;5093993;28;20028;-42
2022/09/24 06:29:24;;;;;;;1.42;0.90;;;;;;;;;;5093888;28;20416;-42
2022/09/24 06:31:52;;;;;;;1.30;0.80;;;;;;;;;;5094165;28;20047;-42
2022/09/24 06:34:18;;;;;;;4.13;1.02;;;;;;;;;;5093805;28;20440;-42
2022/09/24 06:36:44;;;;;;;5.30;1.10;;;;;;;;;;5093742;28;20059;-42
2022/09/24 06:39:09;;;;;;;1.48;1.00;;;;;;;;;;5093983;28;20026;-42
2022/09/24 06:41:35;;;;;;;0.77;0.70;;;;;;;;;;5093619;28;20036;-42
2022/09/24 06:44:00;;;;;;;1.13;1.00;;;;;;;;;;5093660;28;20020;-42
2022/09/24 06:46:26;;;;;;;1.42;1.10;;;;;;;;;;5093371;28;20052;-43
2022/09/24 06:48:53;;;;;;;1.95;1.27;;;;;;;;;;5093534;28;20475;-42
2022/09/24 06:51:19;;;;;;;2.30;0.75;;;;;;;;;;5093111;28;20681;-42
2022/09/24 06:53:44;;;;;;;1.17;1.08;;;;;;;;;;5093444;28;20020;-42
2022/09/24 06:56:10;;;;;;;1.10;1.00;;;;;;;;;;5093472;28;20449;-42
2022/09/24 06:58:35;;;;;;;1.00;0.90;;;;;;;;;;5093713;28;20012;-42
2022/09/24 07:01:01;;;;;;;1.17;1.02;;;;;;;;;;5093153;28;20120;-42
2022/09/24 07:03:31;;;;;;;1.67;1.00;;;;;;;;;;5093336;28;20378;-42
2022/09/24 07:05:59;;;;;;;2.92;1.02;;;;;;;;;;5093482;28;20032;-42
2022/09/24 07:08:25;;;;;;;0.88;0.60;;;;;;;;;;5093084;28;20020;-42
2022/09/24 07:10:51;;;;;;;1.23;0.90;;;;;;;;;;5093223;28;20046;-42
2022/09/24 07:13:17;;;;;;;0.95;0.90;;;;;;;;;;5091668;28;20484;-42
2022/09/24 07:15:43;;;;;;;1.15;0.90;;;;;;;;;;5092954;28;20032;-42
2022/09/24 07:18:08;;;;;;;0.80;0.80;;;;;;;;;;5092911;28;20022;-42
2022/09/24 07:20:35;;;;;;;1.33;1.00;;;;;;;;;;5092913;28;20036;-42
2022/09/24 07:23:02;;;;;;;0.55;0.55;;;;;;;;;;5092941;28;20012;-42
2022/09/24 07:25:27;;;;;;;0.80;0.80;;;;;;;;;;5092969;28;20024;-42
2022/09/24 07:27:53;;;;;;;2.47;1.02;;;;;;;;;;5093123;28;20058;-42
2022/09/24 07:30:18;;;;;;;1.00;0.68;;;;;;;;;;5092649;28;20020;-42
2022/09/24 07:32:44;;;;;;;0.95;0.75;;;;;;;;;;5092638;28;20020;-42
2022/09/24 07:35:10;;;;;;;0.88;0.70;;;;;;;;;;5091288;28;20039;-42
2022/09/24 07:37:36;;;;;;;1.45;1.17;;;;;;;;;;5092840;28;20485;-42
2022/09/24 07:40:01;;;;;;;0.90;0.90;;;;;;;;;;5092461;28;20035;-43
2022/09/24 07:42:27;;;;;;;1.83;0.90;;;;;;;;;;5092718;28;20061;-42
2022/09/24 07:44:55;;;;;;;0.70;0.70;;;;;;;;;;5092162;28;20052;-42
2022/09/24 07:47:21;;;;;;;1.40;1.02;;;;;;;;;;5092432;28;20031;-42
2022/09/24 07:49:46;;;;;;;1.35;1.10;;;;;;;;;;5092396;28;20036;-43
2022/09/24 07:52:11;;;;;;;1.25;1.15;;;;;;;;;;5092228;28;20020;-42
2022/09/24 07:54:37;;;;;;;1.77;1.15;;;;;;;;;;5092310;28;20394;-42
2022/09/24 07:57:02;;;;;;;1.38;1.00;;;;;;;;;;5092433;28;20032;-42
2022/09/24 07:59:29;;;;;;;3.08;2.22;;;;;;;;;;5092416;28;20431;-42
2022/09/24 08:01:56;;;;;;;1.40;0.95;;;;;;;;;;5092119;28;20024;-42
2022/09/24 08:04:21;;;;;;;1.42;1.33;;;;;;;;;;5091272;28;20028;-42
2022/09/24 08:06:47;;;;;;;1.73;1.10;;;;;;;;;;5092085;28;20364;-42
2022/09/24 08:09:14;;;;;;;1.55;1.23;;;;;;;;;;5092271;28;20051;-42
2022/09/24 08:11:40;;;;;;;2.30;1.30;;;;;;;;;;5092058;28;20024;-42
2022/09/24 08:14:06;;;;;;;1.83;1.15;;;;;;;;;;5092011;28;20024;-42
2022/09/24 08:16:32;;;;;;;1.33;1.23;;;;;;;;;;5092077;28;20027;-42
2022/09/24 08:18:57;;;;;;;2.50;1.50;;;;;;;;;;5091960;28;20412;-42
2022/09/24 08:21:23;;;;;;;1.55;1.30;;;;;;;;;;5091693;28;20031;-42
2022/09/24 08:23:49;;;;;;;1.65;1.30;;;;;;;;;;5091859;28;20081;-42
2022/09/24 08:26:15;;;;;;;2.28;1.48;;;;;;;;;;5091845;28;20056;-42
2022/09/24 08:28:43;;;;;;;2.28;1.48;;;;;;;;;;5092003;28;20032;-41
2022/09/24 08:31:11;;;;;;;1.60;1.10;;;;;;;;;;5091965;28;20081;-42
2022/09/24 08:33:37;;;;;;;0.80;0.75;;;;;;;;;;5091825;28;20020;-42
2022/09/24 08:36:03;;;;;;;1.67;1.38;;;;;;;;;;5091843;28;20374;-42
2022/09/24 08:38:29;;;;;;;2.90;1.40;;;;;;;;;;5091792;28;20388;-42
2022/09/24 08:41:03;;;;;;;1.35;1.17;;;;;;;;;;5091385;28;20028;-42
2022/09/24 08:43:41;;;;;;;1.30;1.20;;;;;;;;;;5091516;28;20032;-42
2022/09/24 08:49:03;;;;;;;1.95;1.42;;;;;;;;;;5091369;28;20032;-43
2022/09/24 08:51:32;;;;;;;3.20;1.50;;;;;;;;;;5091857;28;20028;-42
2022/09/24 08:54:12;;;;;;;1.85;1.20;;;;;;;;;;5091359;28;20039;-43
2022/09/24 08:56:42;;;;;;;1.00;0.93;;;;;;;;;;5091321;28;20032;-42
2022/09/24 08:59:23;;;;;;;2.92;1.63;;;;;;;;;;5091267;28;20051;-42
2022/09/24 09:02:07;;;;;;;5.47;1.95;;;;;;;;;;5091512;28;20043;-42
2022/09/24 09:04:40;;;;;;;4.57;2.70;;;;;;;;;;5090024;28;20032;-42
2022/09/24 09:07:05;;;;;;;;;;;;;;;;;;5091929;28;20031;-42
2022/09/24 09:09:43;;;;;;;5.82;2.60;;;;;;;;;;5091106;28;19908;-43
2022/09/24 09:12:11;;;;;;;9.85;4.07;;;;;;;;;;5091166;28;20483;-42
2022/09/24 09:14:39;;;;;;;9.68;4.60;;;;;;;;;;5091915;28;20023;-42
2022/09/24 09:17:11;;;;;;;6.65;3.38;;;;;;;;;;5095220;28;20040;-42
2022/09/24 09:19:38;;;;;;;9.23;3.58;;;;;;;;;;5095299;28;20028;-42
2022/09/24 09:22:06;;;;;;;4.80;3.05;;;;;;;;;;5095165;28;20502;-42
2022/09/24 09:24:38;;;;;;;5.78;2.80;;;;;;;;;;5095027;28;20024;-42
2022/09/24 09:27:09;;;;;;;4.33;2.83;;;;;;;;;;5095456;28;20032;-42
2022/09/24 09:29:35;;;;;;;7.45;4.22;;;;;;;;;;5095297;28;20028;-42
2022/09/24 09:32:24;;;;;;;6.35;3.60;;;;;;;;;;5095031;28;20126;-42
2022/09/24 09:35:03;;;;;;;6.20;3.20;;;;;;;;;;5089209;28;20171;-42
2022/09/24 09:37:34;;;;;;;3.92;2.53;;;;;;;;;;5095081;28;20415;-42
2022/09/24 09:40:00;;;;;;;4.38;2.08;;;;;;;;;;5095058;28;20028;-42
2022/09/24 09:42:28;;;;;;;4.90;2.13;;;;;;;;;;5094842;28;20081;-42
2022/09/24 09:44:54;;;;;;;4.40;2.00;;;;;;;;;;5093570;28;20056;-43
2022/09/24 09:47:39;;;;;;;5.32;2.45;;;;;;;;;;5094769;28;20070;-42
2022/09/24 09:50:11;;;;;;;6.03;2.35;;;;;;;;;;5094696;28;20036;-42
2022/09/24 09:52:38;;;;;;;4.15;2.55;;;;;;;;;;5094635;28;20501;-42
2022/09/24 09:55:05;;;;;;;4.95;2.65;;;;;;;;;;5094558;28;20099;-42
2022/09/24 09:57:30;;;;;;;7.13;4.05;;;;;;;;;;5094828;28;20031;-42
2022/09/24 09:59:56;;;;;;;3.67;2.45;;;;;;;;;;5094410;28;20012;-42
2022/09/24 10:02:30;;;;;;;11.82;4.38;;;;;;;;;;5094414;28;20028;-42
2022/09/24 10:04:57;;;;;;;10.05;5.05;;;;;;;;;;5094407;28;20028;-42
2022/09/24 10:07:23;;;;;;;13.50;3.47;;;;;;;;;;5094463;28;20043;-42
2022/09/24 10:09:57;;;;;;;7.05;3.08;;;;;;;;;;5094719;28;20032;-42
2022/09/24 10:12:23;;;;;;;6.50;2.97;;;;;;;;;;5094236;28;20040;-42
2022/09/24 10:15:14;;;;;;;5.75;2.42;;;;;;;;;;5094280;28;20026;-42
2022/09/24 10:17:40;;;;;;;2.95;2.15;;;;;;;;;;5094505;28;20042;-42
2022/09/24 10:20:07;;;;;;;3.60;2.55;;;;;;;;;;5094114;28;20009;-42
2022/09/24 10:22:34;;;;;;;5.10;2.97;;;;;;;;;;5094281;28;20032;-42
2022/09/24 10:25:00;;;;;;;4.25;2.80;;;;;;;;;;5094063;28;20174;-42
2022/09/24 10:27:25;;;;;;;4.07;2.58;;;;;;;;;;5092802;28;20134;-42
2022/09/24 10:32:38;;;;;;;4.38;2.83;;;;;;;;;;5094216;28;20024;-42
2022/09/24 10:35:18;;;;;;;3.97;2.75;;;;;;;;;;5093803;28;20012;-42
2022/09/24 10:37:51;;;;;;;3.72;1.90;;;;;;;;;;5093862;28;20020;-42
2022/09/24 10:40:21;;;;;;;2.15;1.70;;;;;;;;;;5093822;28;20032;-42
2022/09/24 10:42:53;;;;;;;2.25;1.70;;;;;;;;;;5093928;28;20047;-43
2022/09/24 10:45:19;;;;;;;2.33;1.80;;;;;;;;;;5093398;28;20071;-42
2022/09/24 10:47:52;;;;;;;7.13;2.08;;;;;;;;;;5093761;28;20122;-42
2022/09/24 10:50:24;;;;;;;1.80;1.50;;;;;;;;;;5093517;28;20116;-42
2022/09/24 10:52:56;;;;;;;8.73;2.80;;;;;;;;;;5093632;28;20106;-42
2022/09/24 10:55:38;;;;;;;1.80;1.70;;;;;;;;;;5093323;28;20120;-42
2022/09/24 10:58:13;;;;;;;5.35;1.65;;;;;;;;;;5091988;28;20032;-42
2022/09/24 11:00:39;;;;;;;2.03;0.88;;;;;;;;;;5093372;28;20402;-42
2022/09/24 11:03:24;;;;;;;1.60;1.30;;;;;;;;;;5093440;28;20027;-42
2022/09/24 11:05:52;;;;;;;1.83;1.10;;;;;;;;;;5093439;28;20028;-42
2022/09/24 11:08:30;;;;;;;1.73;1.05;;;;;;;;;;5092985;28;20024;-42
2022/09/24 11:11:08;;;;;;;2.03;1.60;;;;;;;;;;5093049;28;20024;-42
2022/09/24 11:13:46;;;;;;;1.52;1.33;;;;;;;;;;5092995;28;20535;-42
2022/09/24 11:16:30;;;;;;;1.80;1.10;;;;;;;;;;5092906;28;20466;-42
2022/09/24 11:19:14;;;;;;;2.20;1.60;;;;;;;;;;5093092;28;20043;-42
2022/09/24 11:22:03;;;;;;;1.42;1.20;;;;;;;;;;5092900;28;20090;-42
2022/09/24 11:24:28;;;;;;;2.50;1.38;;;;;;;;;;5072717;28;20032;-43
2022/09/24 11:27:14;;;;;;;2.17;1.58;;;;;;;;;;5092764;28;20359;-42
2022/09/24 11:29:45;;;;;;;1.70;1.20;;;;;;;;;;5071253;28;20503;-42
2022/09/24 11:32:21;;;;;;;2.70;1.60;;;;;;;;;;5092621;28;20417;-42
2022/09/24 11:35:05;;;;;;;1.17;1.02;;;;;;;;;;5092672;28;20031;-42
2022/09/24 11:37:49;;;;;;;1.50;1.25;;;;;;;;;;5092347;28;20085;-42
2022/09/24 11:40:35;;;;;;;1.85;1.08;;;;;;;;;;5092440;28;20115;-42
2022/09/24 11:43:17;;;;;;;2.65;1.55;;;;;;;;;;5091236;28;20055;-42
2022/09/24 11:46:01;;;;;;;0.70;0.70;;;;;;;;;;5092417;28;20044;-42
2022/09/24 11:48:35;;;;;;;1.00;0.90;;;;;;;;;;5092453;28;20032;-42
2022/09/24 11:51:01;;;;;;;1.42;1.05;;;;;;;;;;5092429;28;20024;-42
2022/09/24 11:53:43;;;;;;;2.10;1.35;;;;;;;;;;5092532;28;20336;-42
2022/09/24 11:56:10;;;;;;;3.67;1.10;;;;;;;;;;5092427;28;20056;-43
2022/09/24 11:58:42;;;;;;;1.80;1.58;;;;;;;;;;5092339;28;20101;-42
2022/09/24 12:01:12;;;;;;;1.88;1.05;;;;;;;;;;5092399;28;20070;-43
2022/09/24 12:03:52;;;;;;;1.00;0.73;;;;;;;;;;5092175;28;20016;-42
2022/09/24 12:06:20;;;;;;;1.02;0.93;;;;;;;;;;5091735;28;20429;-42
2022/09/24 12:08:53;;;;;;;3.33;0.95;;;;;;;;;;5092431;28;20412;-42
2022/09/24 12:11:19;;;;;;;1.98;1.25;;;;;;;;;;5091902;28;20016;-42
2022/09/24 12:13:47;;;;;;;2.38;1.85;;;;;;;;;;5091967;28;20031;-42
2022/09/24 12:16:22;;;;;;;0.80;0.70;;;;;;;;;;5092124;28;20071;-42
2022/09/24 12:18:51;;;;;;;1.35;1.25;;;;;;;;;;5091913;28;20032;-42
2022/09/24 12:21:29;;;;;;;1.55;1.17;;;;;;;;;;5091734;28;20032;-42
2022/09/24 12:24:01;;;;;;;2.00;1.35;;;;;;;;;;5092108;28;20028;-42
2022/09/24 12:26:27;;;;;;;1.63;1.33;;;;;;;;;;5090378;28;20020;-42
2022/09/24 12:34:40;;;;;;;1.83;1.20;;;;;;;;;;5091835;28;20032;-42
2022/09/24 12:37:10;;;;;;;1.23;1.02;;;;;;;;;;5091947;28;20043;-42
2022/09/24 12:39:58;;;;;;;1.77;1.45;;;;;;;;;;5091823;28;20020;-42
2022/09/24 12:42:29;;;;;;;1.40;0.82;;;;;;;;;;5089565;28;20115;-42
2022/09/24 12:44:57;;;;;;;0.90;0.82;;;;;;;;;;5091287;28;20130;-42
2022/09/24 12:47:24;;;;;;;1.73;1.30;;;;;;;;;;5091798;28;20074;-41
2022/09/24 12:49:55;;;;;;;2.40;1.50;;;;;;;;;;5090927;28;20116;-42
2022/09/24 12:52:24;;;;;;;1.75;1.10;;;;;;;;;;5091436;28;20380;-42
2022/09/24 12:54:58;;;;;;;1.83;1.60;;;;;;;;;;5091455;28;20458;-42
2022/09/24 12:57:25;;;;;;;1.70;1.48;;;;;;;;;;5091466;28;20024;-42
2022/09/24 12:59:58;;;;;;;2.92;1.92;;;;;;;;;;5091349;28;20107;-42
2022/09/24 13:02:23;;;;;;;5.75;1.80;;;;;;;;;;5091284;28;20047;-42
2022/09/24 13:04:50;;;;;;;3.80;2.00;;;;;;;;;;5091456;28;20371;-42
2022/09/24 13:07:33;;;;;;;3.53;2.13;;;;;;;;;;5091233;28;20028;-42
2022/09/24 13:10:20;;;;;;;2.40;1.75;;;;;;;;;;5091307;28;20478;-42
2022/09/24 13:12:46;;;;;;;3.55;2.10;;;;;;;;;;5091622;28;20044;-42
2022/09/24 13:15:30;;;;;;;3.28;2.20;;;;;;;;;;5091499;28;20562;-42
2022/09/24 13:18:07;;;;;;;3.33;1.55;;;;;;;;;;5091469;28;20032;-42
2022/09/24 13:20:33;;;;;;;2.03;1.48;;;;;;;;;;5090948;28;20036;-41
2022/09/24 13:23:11;;;;;;;2.30;1.52;;;;;;;;;;5091213;28;20044;-43
2022/09/24 13:25:36;;;;;;;2.35;1.40;;;;;;;;;;5091220;28;20032;-42
2022/09/24 13:28:17;;;;;;;2.85;2.10;;;;;;;;;;5091427;28;20016;-42
2022/09/24 13:30:43;;;;;;;3.47;1.80;;;;;;;;;;5091409;28;20073;-42
2022/09/24 13:33:15;;;;;;;6.32;1.90;;;;;;;;;;5091333;28;20020;-42
2022/09/24 13:35:48;;;;;;;1.90;1.63;;;;;;;;;;5090936;28;20494;-42
2022/09/24 13:38:16;;;;;;;3.17;1.80;;;;;;;;;;5091206;28;20025;-42
2022/09/24 13:40:44;;;;;;;1.63;1.35;;;;;;;;;;5090826;28;20035;-42
2022/09/24 13:43:16;;;;;;;3.83;2.22;;;;;;;;;;5091046;28;20032;-42
2022/09/24 13:45:44;;;;;;;4.00;2.10;;;;;;;;;;5090887;28;20383;-42
2022/09/24 13:48:33;;;;;;;3.33;1.75;;;;;;;;;;5090897;28;20031;-42
2022/09/24 13:51:00;;;;;;;2.63;1.80;;;;;;;;;;5085369;28;20134;-43
2022/09/24 13:53:34;;;;;;;2.28;2.00;;;;;;;;;;5090986;28;20074;-42
2022/09/24 13:56:02;;;;;;;2.08;1.63;;;;;;;;;;5090705;28;20035;-42
2022/09/24 13:58:28;;;;;;;1.40;1.30;;;;;;;;;;5090754;28;20038;-42
2022/09/24 14:00:55;;;;;;;1.42;1.33;;;;;;;;;;5092043;28;20047;-42
2022/09/24 14:03:24;;;;;;;2.88;1.40;;;;;;;;;;5094327;28;20076;-42
2022/09/24 14:05:50;;;;;;;1.60;1.50;;;;;;;;;;5094385;28;20039;-43
2022/09/24 14:08:17;;;;;;;2.38;1.83;;;;;;;;;;5094249;28;20012;-42
2022/09/24 14:10:44;;;;;;;2.35;1.70;;;;;;;;;;5094415;28;20463;-42
2022/09/24 14:13:20;;;;;;;2.33;1.10;;;;;;;;;;5094419;28;20020;-42
2022/09/24 14:16:18;;;;;;;1.95;1.50;;;;;;;;;;5094186;28;20028;-42
2022/09/24 14:18:44;;;;;;;1.73;1.15;;;;;;;;;;5070985;28;20051;-43
2022/09/24 14:21:11;;;;;;;3.63;1.58;;;;;;;;;;5094211;28;20517;-42
2022/09/24 14:23:40;;;;;;;2.03;1.92;;;;;;;;;;5094207;28;20028;-42
2022/09/24 14:26:06;;;;;;;1.42;1.33;;;;;;;;;;5094078;28;20467;-42
2022/09/24 14:28:33;;;;;;;2.60;1.70;;;;;;;;;;5094169;28;20445;-42
2022/09/24 14:30:59;;;;;;;1.48;1.13;;;;;;;;;;5094034;28;20024;-42
2022/09/24 14:33:27;;;;;;;1.27;1.13;;;;;;;;;;5093839;28;20032;-42
2022/09/24 14:35:54;;;;;;;1.70;1.33;;;;;;;;;;5093701;28;20083;-42
2022/09/24 14:38:24;;;;;;;1.17;1.08;;;;;;;;;;5094086;28;20039;-42
2022/09/24 14:40:53;;;;;;;1.50;1.00;;;;;;;;;;5094012;28;20046;-42
2022/09/24 14:43:30;;;;;;;2.65;1.40;;;;;;;;;;5093882;28;20383;-42
2022/09/24 14:46:14;;;;;;;1.15;1.15;;;;;;;;;;5093520;28;20056;-42
2022/09/24 14:48:40;;;;;;;1.42;1.20;;;;;;;;;;5093876;28;20028;-43
2022/09/24 14:51:22;;;;;;;1.65;1.45;;;;;;;;;;5093825;28;20026;-42
2022/09/24 14:53:55;;;;;;;1.48;1.38;;;;;;;;;;5093908;28;20380;-42
2022/09/24 14:56:29;;;;;;;1.50;1.27;;;;;;;;;;5093410;28;20051;-42
2022/09/24 14:58:54;;;;;;;0.90;0.90;;;;;;;;;;5093683;28;20474;-42
2022/09/24 15:01:22;;;;;;;0.93;0.88;;;;;;;;;;5092221;28;20028;-43
2022/09/24 15:03:49;;;;;;;1.27;1.00;;;;;;;;;;5093367;28;20024;-43
2022/09/24 15:06:14;;;;;;;1.75;1.20;;;;;;;;;;5093388;28;20024;-42
2022/09/24 15:08:40;;;;;;;0.82;0.80;;;;;;;;;;5093198;28;20031;-42
2022/09/24 15:11:06;;;;;;;2.20;1.25;;;;;;;;;;5093291;28;20024;-42